Terminal Aerodrome Forecast
Issued by NWS Denver/Boulder, CO

Home | Current Version | Previous Version | Text Only | Print | Product List | Glossary On
Versions: 1 2 3 4 5 6 7 8 9 10 11 12 13 14 15 16 17 18 19 20 21 22 23 24 25 26 27 28 29 30 31 32 33 34 35 36 37 38 39 40 41 42 43 44 45 46 47
000
FTUS45 KBOU 251427 AAB
TAFDEN
TAF AMD
KDEN 251427Z 2514/2618 31006KT P6SM VCFG SCT003 SCT180
      TEMPO 2514/2516 1SM BR BKN003
     FM251600 VRB05KT P6SM FEW080 SCT150 BKN220
     FM252200 14010KT P6SM SCT080 BKN120
      TEMPO 2522/2602 VRB15G25KT -TSRA BKN060CB
     FM260400 15011KT P6SM VCSH SCT050 BKN080
     FM260800 17011KT P6SM -SHRA SCT020 BKN050=

USA.gov is the U.S. government's official web portal to all federal, state and local government web resources and services.